Kaufman, TX (75142)

3:52 AM CST on February 11, 2016 (GMT -0600)
Kaufman County | | Change Station
CLOSE
Current Station
Personal Weather Station
Location: Kaufman, TX
Elevation: 469 ft
Nearby Weather Stations

Elev 469 ft 32.59 °N, 96.39 °W | Updated 6 seconds ago

Clear
Clear
51.4 °F
Feels Like 51.4 °F
N
9.6
Wind Variable Wind from South
Gusts 9.8 mph

Today
High -- | Low -- °F
--% Chance of Precip.
Yesterday
High -- | Low -- °F
Precip. -- in
Pressure 30.04 in
Visibility 10.0 miles
Clouds Clear
Dew Point 14 °F
Humidity 22%
Rainfall 0.00 in
Snow Depth Not available.
7:12 AM 6:07 PM
Waxing Crescent, 11% visible
METAR KTRL 110853Z AUTO 19005KT 10SM CLR 09/02 A3005 RMK AO2 SLP173 T00890017 56003
Pressure 30.04 in
Visibility 10.0 miles
Clouds Clear
Dew Point 14 °F
Humidity 22%
Rainfall 0.00 in
Snow Depth Not available.
7:12 AM 6:07 PM
Waxing Crescent, 11% visible
METAR KTRL 110853Z AUTO 19005KT 10SM CLR 09/02 A3005 RMK AO2 SLP173 T00890017 56003

10-Day Weather Forecast

Almanac

Astronomy

Feb. 11, 2016 Rise Set
Actual Time
Civil Twilight
Nautical Twilight
Astronomical Twilight
Moon
Length of Visible Light
Length of Day
Tomorrow will be .
, % of the Moon is Illuminated

Today's Extremes

State Highs State Lows

Community

WunderPhotos

Upload Photos

1,892,030 photos uploaded!

WunderBlog® & News

Nearby

Air Quality

  Air Quality AQ Index Pollutant
Not available.

Snow Depth

Station Depth Elevation

Earthquake Activity

City Distance Mag. Time & Date
Minimum magnitude displayed is 2.5.

Coastal Water Temperatures

Place Temperature

Stations

Nearby Weather Stations

Station Location Temp. Windchill Dew Point Humidity Wind Precip. Elev Updated Type
                   

Watches & Warnings

There are currently no watches in effect.